Time;durP1;ratioP1;P1;durP2;ratioP2;P2;SDS_P1;SDS_P2;PMS_P1;PMS_P2;Temp;Humidity;BMP_temperature;BMP_pressure;BME280_temperature;BME280_humidity;BME280_pressure;Samples;Min_cycle;Max_cycle;Signal;HPM_P1;HPM_P2
2022/11/23 00:00:58;;;;;;;3.85;1.33;;;3.00;98.00;;;;;;5018671;28;20046;-69
2022/11/23 00:03:24;;;;;;;3.58;1.30;;;3.00;98.00;;;;;;5025001;28;20061;-69
2022/11/23 00:05:49;;;;;;;9.10;2.20;;;3.10;98.00;;;;;;5025145;28;20021;-69
2022/11/23 00:08:15;;;;;;;6.43;1.67;;;3.20;98.00;;;;;;5029191;28;20045;-69
2022/11/23 00:10:40;;;;;;;5.82;1.60;;;3.60;98.00;;;;;;5034139;28;20030;-69
2022/11/23 00:13:06;;;;;;;5.35;1.63;;;3.90;98.00;;;;;;5034593;28;20029;-69
2022/11/23 00:15:32;;;;;;;7.00;1.83;;;4.10;98.00;;;;;;5019218;28;20124;-69
2022/11/23 00:17:59;;;;;;;8.10;1.70;;;4.20;98.00;;;;;;5030237;28;20374;-69
2022/11/23 00:20:25;;;;;;;6.75;1.70;;;4.20;98.00;;;;;;5017047;28;20130;-69
2022/11/23 00:22:50;;;;;;;9.18;1.60;;;4.10;98.00;;;;;;5038194;28;20112;-70
2022/11/23 00:25:16;;;;;;;6.68;1.65;;;4.10;98.00;;;;;;5028090;28;20045;-68
2022/11/23 00:27:42;;;;;;;6.70;1.70;;;4.00;98.00;;;;;;5029721;28;20105;-70
2022/11/23 00:30:08;;;;;;;4.35;1.60;;;3.90;98.00;;;;;;5032944;28;20026;-69
2022/11/23 00:32:33;;;;;;;4.22;1.50;;;3.80;98.00;;;;;;5019926;28;20124;-69
2022/11/23 00:34:59;;;;;;;8.15;1.65;;;3.90;98.00;;;;;;5020417;28;20474;-69
2022/11/23 00:37:24;;;;;;;7.95;1.65;;;3.90;98.00;;;;;;5025692;28;20319;-68
2022/11/23 00:39:53;;;;;;;6.80;1.83;;;4.00;98.00;;;;;;5022474;28;20029;-69
2022/11/23 00:42:18;;;;;;;6.50;1.58;;;4.10;98.00;;;;;;5036181;28;20037;-69
2022/11/23 00:44:44;;;;;;;7.97;2.15;;;4.20;98.00;;;;;;5031286;28;20052;-69
2022/11/23 00:47:10;;;;;;;9.55;2.53;;;4.20;98.00;;;;;;5026940;28;20057;-69
2022/11/23 00:49:35;;;;;;;7.85;1.90;;;4.30;98.00;;;;;;5016621;28;20034;-69
2022/11/23 00:52:01;;;;;;;8.35;2.40;;;4.40;98.00;;;;;;5017233;28;20057;-69
2022/11/23 00:54:29;;;;;;;7.68;2.58;;;4.20;98.00;;;;;;5036714;28;20322;-69
2022/11/23 00:56:55;;;;;;;7.45;2.00;;;4.00;98.00;;;;;;5036354;28;20025;-69
2022/11/23 00:59:23;;;;;;;5.25;1.75;;;3.70;98.00;;;;;;5029020;28;20421;-68
2022/11/23 01:01:48;;;;;;;6.28;1.80;;;3.70;98.00;;;;;;5030656;28;20033;-68
2022/11/23 01:04:14;;;;;;;8.73;1.73;;;3.60;98.00;;;;;;5019275;28;20480;-69
2022/11/23 01:06:39;;;;;;;8.55;1.70;;;3.50;98.00;;;;;;5015797;28;20097;-69
2022/11/23 01:09:09;;;;;;;8.20;1.67;;;3.40;98.00;;;;;;5019907;28;20076;-69
2022/11/23 01:11:35;;;;;;;7.43;1.70;;;3.30;98.00;;;;;;5015446;28;20028;-68
2022/11/23 01:14:01;;;;;;;6.05;1.70;;;3.30;98.00;;;;;;5028696;28;20030;-69
2022/11/23 01:16:29;;;;;;;4.95;1.83;;;3.20;98.00;;;;;;5019580;28;20017;-69
2022/11/23 01:18:56;;;;;;;8.65;1.80;;;3.10;98.00;;;;;;5028087;28;20099;-69
2022/11/23 01:21:23;;;;;;;6.47;2.08;;;3.00;98.00;;;;;;5000950;28;20413;-69
2022/11/23 01:23:48;;;;;;;6.18;1.80;;;3.20;98.00;;;;;;5023310;28;20036;-69
2022/11/23 01:26:14;;;;;;;7.55;1.92;;;3.20;98.00;;;;;;5012986;28;20033;-68
2022/11/23 01:28:40;;;;;;;8.13;2.13;;;3.10;98.00;;;;;;5023803;28;20036;-69
2022/11/23 01:31:15;;;;;;;6.53;1.90;;;3.00;98.00;;;;;;5023050;28;20366;-68
2022/11/23 01:33:41;;;;;;;7.85;1.92;;;2.90;98.00;;;;;;5024938;28;20064;-69
2022/11/23 01:36:27;;;;;;;5.13;1.60;;;2.90;98.00;;;;;;5026750;28;20030;-69
2022/11/23 01:38:54;;;;;;;9.27;2.92;;;2.70;98.00;;;;;;5027524;28;20037;-70
2022/11/23 01:41:25;;;;;;;10.23;2.40;;;2.50;98.00;;;;;;5022878;28;20089;-69
2022/11/23 01:43:51;;;;;;;13.75;2.08;;;2.70;96.30;;;;;;5014880;28;20034;-68
2022/11/23 01:46:18;;;;;;;9.02;2.10;;;2.80;97.80;;;;;;5023874;28;20025;-68
2022/11/23 01:48:49;;;;;;;8.30;2.85;;;2.80;98.00;;;;;;5028740;28;20397;-69
2022/11/23 01:51:19;;;;;;;8.95;1.73;;;2.70;98.00;;;;;;5015801;28;20022;-69
2022/11/23 01:53:47;;;;;;;5.15;1.67;;;2.60;98.00;;;;;;5028476;28;20112;-69
2022/11/23 01:56:19;;;;;;;6.72;1.70;;;2.50;96.60;;;;;;5022435;28;20022;-69
2022/11/23 01:58:49;;;;;;;7.68;1.95;;;2.60;98.00;;;;;;5024391;28;20026;-69
2022/11/23 02:01:15;;;;;;;6.22;2.03;;;2.50;98.00;;;;;;5023215;28;20079;-69
2022/11/23 02:03:43;;;;;;;11.15;2.10;;;2.40;97.10;;;;;;5020050;28;20038;-69
2022/11/23 02:06:15;;;;;;;7.60;1.83;;;2.40;96.50;;;;;;5000215;28;20094;-69
2022/11/23 02:08:41;;;;;;;5.57;1.50;;;2.40;96.50;;;;;;5026778;28;20163;-68
2022/11/23 02:11:08;;;;;;;10.32;2.95;;;2.60;96.80;;;;;;4999816;28;20026;-68
2022/11/23 02:13:33;;;;;;;10.35;2.03;;;2.50;97.20;;;;;;5026651;28;20445;-68
2022/11/23 02:16:00;;;;;;;11.60;2.60;;;2.40;96.50;;;;;;5026502;28;20038;-69
2022/11/23 02:18:29;;;;;;;7.55;1.80;;;2.40;95.70;;;;;;5026646;28;20026;-68
2022/11/23 02:20:56;;;;;;;9.23;2.08;;;2.50;96.10;;;;;;5021885;28;20342;-70
2022/11/23 02:23:33;;;;;;;6.85;1.70;;;2.40;96.70;;;;;;5034843;28;20440;-70
2022/11/23 02:26:13;;;;;;;13.32;2.55;;;2.40;96.00;;;;;;5019659;28;20033;-70
2022/11/23 02:28:48;;;;;;;11.13;2.38;;;2.40;97.00;;;;;;5030823;28;20362;-69
2022/11/23 02:31:14;;;;;;;8.80;2.45;;;2.40;95.00;;;;;;5028616;28;20196;-69
2022/11/23 02:33:39;;;;;;;10.45;2.00;;;2.40;96.30;;;;;;5039657;28;20022;-69
2022/11/23 02:36:28;;;;;;;8.07;2.15;;;2.50;96.80;;;;;;5019902;28;20419;-69
2022/11/23 02:38:55;;;;;;;7.65;1.80;;;2.30;97.30;;;;;;5029690;28;20018;-69
2022/11/23 02:41:21;;;;;;;13.85;2.92;;;2.30;96.80;;;;;;5032543;28;20083;-70
2022/11/23 02:43:52;;;;;;;12.20;2.22;;;2.30;95.70;;;;;;5028037;28;20053;-69
2022/11/23 02:46:18;;;;;;;9.32;2.80;;;2.30;95.70;;;;;;5027258;28;20415;-69
2022/11/23 02:48:44;;;;;;;7.20;2.08;;;2.30;95.40;;;;;;5022738;28;20088;-68
2022/11/23 02:51:09;;;;;;;8.50;1.95;;;2.40;95.20;;;;;;5013876;28;20462;-68
2022/11/23 02:53:35;;;;;;;12.30;2.33;;;2.50;95.90;;;;;;5020263;28;20113;-69
2022/11/23 02:56:00;;;;;;;8.50;2.00;;;2.60;96.60;;;;;;5030230;28;20033;-70
2022/11/23 02:58:26;;;;;;;9.13;2.42;;;2.60;97.10;;;;;;5030159;28;20045;-70
2022/11/23 03:00:51;;;;;;;10.38;2.25;;;2.60;97.90;;;;;;5034689;28;20037;-69
2022/11/23 03:03:17;;;;;;;8.57;1.90;;;2.50;98.00;;;;;;5037502;28;20441;-69
2022/11/23 03:05:42;;;;;;;7.15;2.25;;;2.50;97.60;;;;;;5029194;28;20053;-69
2022/11/23 03:08:08;;;;;;;7.95;2.20;;;2.50;97.50;;;;;;5028346;28;20038;-69
2022/11/23 03:10:34;;;;;;;9.52;1.83;;;2.60;97.40;;;;;;5020099;28;20030;-69
2022/11/23 03:12:59;;;;;;;9.00;2.35;;;2.70;98.00;;;;;;5032346;28;20026;-69
2022/11/23 03:15:25;;;;;;;9.05;1.83;;;2.70;98.00;;;;;;5029497;28;20331;-69
2022/11/23 03:17:51;;;;;;;8.23;2.08;;;2.40;98.00;;;;;;5025188;28;20037;-69
2022/11/23 03:20:17;;;;;;;7.45;1.98;;;2.30;97.80;;;;;;5026199;28;20053;-69
2022/11/23 03:22:44;;;;;;;8.35;1.90;;;2.30;96.90;;;;;;5012520;28;20029;-69
2022/11/23 03:25:10;;;;;;;6.15;1.90;;;2.40;97.20;;;;;;5023113;28;20077;-69
2022/11/23 03:27:37;;;;;;;6.20;1.95;;;2.40;96.80;;;;;;5027499;28;20127;-69
2022/11/23 03:30:03;;;;;;;6.50;1.90;;;2.30;97.40;;;;;;5026814;28;20430;-69
2022/11/23 03:32:28;;;;;;;8.75;1.80;;;2.20;97.20;;;;;;5026700;28;20044;-69
2022/11/23 03:34:57;;;;;;;8.20;1.88;;;2.20;96.40;;;;;;5032718;28;20099;-68
2022/11/23 03:37:24;;;;;;;7.65;2.08;;;2.20;96.20;;;;;;5037786;28;20049;-69
2022/11/23 03:39:49;;;;;;;5.25;1.60;;;2.30;96.60;;;;;;5030999;28;20028;-69
2022/11/23 03:45:37;;;;;;;9.00;1.60;;;2.40;96.70;;;;;;5020814;28;20076;-69
2022/11/23 03:48:03;;;;;;;7.13;2.00;;;2.70;98.00;;;;;;5043251;28;20048;-68
2022/11/23 03:50:28;;;;;;;10.65;1.80;;;2.70;98.00;;;;;;5027894;28;20441;-69
2022/11/23 03:52:55;;;;;;;7.63;1.70;;;2.80;98.00;;;;;;5026048;28;20064;-69
2022/11/23 03:55:20;;;;;;;5.93;2.03;;;2.90;98.00;;;;;;5018969;28;20038;-69
2022/11/23 03:57:49;;;;;;;14.35;2.40;;;3.00;98.00;;;;;;5017227;28;20109;-69
2022/11/23 04:00:15;;;;;;;6.68;1.60;;;3.10;98.00;;;;;;5024568;28;20037;-68
2022/11/23 04:02:42;;;;;;;5.55;2.10;;;3.20;98.00;;;;;;5032254;28;20029;-69
2022/11/23 04:05:08;;;;;;;7.72;1.63;;;3.30;98.00;;;;;;5018591;28;20033;-69
2022/11/23 04:07:33;;;;;;;9.60;2.00;;;3.20;98.00;;;;;;5017222;28;20033;-69
2022/11/23 04:09:59;;;;;;;10.80;2.17;;;3.40;98.00;;;;;;5034103;28;20034;-69
2022/11/23 04:12:25;;;;;;;7.10;2.03;;;3.50;98.00;;;;;;5034816;28;20115;-69
2022/11/23 04:14:51;;;;;;;8.68;1.77;;;3.60;98.00;;;;;;5009749;28;20346;-69
2022/11/23 04:17:16;;;;;;;11.20;1.98;;;3.60;98.00;;;;;;5029649;28;20133;-70
2022/11/23 04:19:42;;;;;;;6.55;1.45;;;3.70;98.00;;;;;;5032079;28;20042;-69
2022/11/23 04:22:08;;;;;;;7.55;1.90;;;3.90;98.00;;;;;;5022096;28;20407;-69
2022/11/23 04:24:33;;;;;;;10.88;1.90;;;3.80;98.00;;;;;;5031369;28;20315;-68
2022/11/23 04:26:59;;;;;;;8.70;1.85;;;3.70;98.00;;;;;;5026051;28;20057;-69
2022/11/23 04:29:24;;;;;;;8.48;2.67;;;3.60;98.00;;;;;;5038567;28;20029;-69
2022/11/23 04:31:50;;;;;;;7.88;2.03;;;3.60;98.00;;;;;;5035025;28;20072;-69
2022/11/23 04:34:15;;;;;;;7.10;1.83;;;3.50;98.00;;;;;;5033672;28;20024;-69
2022/11/23 04:36:41;;;;;;;7.90;2.05;;;3.40;98.00;;;;;;5031975;28;20085;-68
2022/11/23 04:39:07;;;;;;;8.82;1.88;;;3.20;98.00;;;;;;5025852;28;20288;-69
2022/11/23 04:41:32;;;;;;;6.35;1.95;;;3.10;98.00;;;;;;5034852;28;20022;-69
2022/11/23 04:43:58;;;;;;;9.13;2.33;;;3.10;98.00;;;;;;5033492;28;20033;-68
2022/11/23 04:46:24;;;;;;;7.93;1.92;;;3.10;98.00;;;;;;5025451;28;20034;-68
2022/11/23 04:48:49;;;;;;;7.88;1.90;;;3.10;98.00;;;;;;5025110;28;20112;-69
2022/11/23 04:51:18;;;;;;;7.85;1.95;;;2.90;98.00;;;;;;5032096;28;20033;-69
2022/11/23 04:53:43;;;;;;;7.35;1.90;;;2.80;98.00;;;;;;5045431;28;20409;-69
2022/11/23 04:56:09;;;;;;;7.88;1.52;;;2.60;98.00;;;;;;5032798;28;20038;-69
2022/11/23 04:58:35;;;;;;;9.43;2.20;;;2.60;98.00;;;;;;5025881;28;20029;-68
2022/11/23 05:01:01;;;;;;;10.57;2.63;;;2.60;98.00;;;;;;5028228;28;20108;-69
2022/11/23 05:03:26;;;;;;;9.38;2.10;;;2.50;98.00;;;;;;5034808;28;20376;-69
2022/11/23 05:05:52;;;;;;;7.05;2.20;;;2.40;98.00;;;;;;5024780;28;20452;-69
2022/11/23 05:08:18;;;;;;;7.60;2.15;;;2.40;98.00;;;;;;5031953;28;20024;-69
2022/11/23 05:10:43;;;;;;;9.25;3.33;;;2.40;98.00;;;;;;5024636;28;20083;-69
2022/11/23 05:13:10;;;;;;;8.13;2.03;;;2.40;98.00;;;;;;5026976;28;20041;-69
2022/11/23 05:15:35;;;;;;;11.25;2.15;;;2.40;98.00;;;;;;5028899;28;20071;-69
2022/11/23 05:18:05;;;;;;;13.88;2.10;;;2.40;98.00;;;;;;5027084;28;20017;-69
2022/11/23 05:20:31;;;;;;;6.28;1.90;;;2.40;98.00;;;;;;5038213;28;20455;-70
2022/11/23 05:22:58;;;;;;;7.35;2.15;;;2.30;98.00;;;;;;5031908;28;20571;-69
2022/11/23 05:25:24;;;;;;;11.38;2.40;;;2.30;98.00;;;;;;5032162;28;20025;-69
2022/11/23 05:27:50;;;;;;;7.97;2.30;;;2.30;98.00;;;;;;5030269;28;20030;-69
2022/11/23 05:30:15;;;;;;;14.85;4.45;;;2.30;98.00;;;;;;5032467;28;20022;-69
2022/11/23 05:32:41;;;;;;;6.78;2.08;;;2.20;98.00;;;;;;5026953;28;20034;-69
2022/11/23 05:35:07;;;;;;;5.65;2.10;;;2.10;98.00;;;;;;5033323;28;20041;-69
2022/11/23 05:37:33;;;;;;;9.68;2.38;;;2.10;98.00;;;;;;5021409;28;20068;-69
2022/11/23 05:40:00;;;;;;;8.73;2.72;;;2.10;98.00;;;;;;5016049;28;20065;-68
2022/11/23 05:42:26;;;;;;;11.18;2.70;;;1.90;98.00;;;;;;5032453;28;20116;-68
2022/11/23 05:44:52;;;;;;;11.90;2.42;;;1.70;98.00;;;;;;5021643;28;20038;-68
2022/11/23 05:47:17;;;;;;;9.80;3.20;;;1.50;97.80;;;;;;5034434;28;20025;-68
2022/11/23 05:49:43;;;;;;;17.63;5.07;;;1.40;96.90;;;;;;5032903;28;20048;-69
2022/11/23 05:52:11;;;;;;;9.20;5.05;;;1.30;96.10;;;;;;5043476;28;20425;-69
2022/11/23 05:54:38;;;;;;;19.65;5.60;;;1.30;95.10;;;;;;5032809;28;20030;-69
2022/11/23 05:57:03;;;;;;;15.80;5.70;;;1.30;95.10;;;;;;5038031;28;20075;-69
2022/11/23 05:59:29;;;;;;;12.15;5.03;;;1.20;94.80;;;;;;5021510;28;20030;-68
2022/11/23 06:01:54;;;;;;;9.65;3.70;;;1.10;94.90;;;;;;5030142;28;20096;-69
2022/11/23 06:04:20;;;;;;;10.18;4.65;;;1.10;93.60;;;;;;5034584;28;20037;-69
2022/11/23 06:06:45;;;;;;;9.75;4.25;;;1.10;93.70;;;;;;5029930;28;20028;-69
2022/11/23 06:09:11;;;;;;;14.45;4.30;;;1.00;93.30;;;;;;5035615;28;20030;-69
2022/11/23 06:11:36;;;;;;;9.02;3.85;;;1.00;93.30;;;;;;5040476;28;20410;-69
2022/11/23 06:14:02;;;;;;;10.52;3.92;;;0.80;93.20;;;;;;5037768;28;20426;-69
2022/11/23 06:16:28;;;;;;;13.88;5.35;;;0.70;92.80;;;;;;5028403;28;20147;-69
2022/11/23 06:18:53;;;;;;;8.60;3.45;;;0.60;92.40;;;;;;5021965;28;20375;-69
2022/11/23 06:21:19;;;;;;;7.93;3.55;;;0.40;92.10;;;;;;5023311;28;20030;-69
2022/11/23 06:23:48;;;;;;;9.27;3.92;;;0.30;91.30;;;;;;5039674;28;20038;-68
2022/11/23 06:26:13;;;;;;;10.85;4.03;;;0.30;89.60;;;;;;5040849;28;20322;-69
2022/11/23 06:28:40;;;;;;;7.68;3.47;;;0.20;88.70;;;;;;5026969;28;20032;-69
2022/11/23 06:31:05;;;;;;;10.43;4.22;;;0.20;88.50;;;;;;5026290;28;20034;-68
2022/11/23 06:33:32;;;;;;;10.15;4.15;;;0.20;89.10;;;;;;5038643;28;20056;-69
2022/11/23 06:36:00;;;;;;;16.45;4.40;;;0.00;88.40;;;;;;5037373;28;20049;-69
2022/11/23 06:38:26;;;;;;;22.20;5.20;;;0.00;87.80;;;;;;5028584;28;20349;-69
2022/11/23 06:40:59;;;;;;;9.00;4.00;;;0.10;86.10;;;;;;5034126;28;20159;-68
2022/11/23 06:43:25;;;;;;;7.82;4.22;;;0.20;85.60;;;;;;5037105;28;20104;-68
2022/11/23 06:45:51;;;;;;;9.30;3.60;;;0.20;86.60;;;;;;5034121;28;20414;-69
2022/11/23 06:48:16;;;;;;;11.93;4.45;;;0.20;86.70;;;;;;5035767;28;20044;-68
2022/11/23 06:50:42;;;;;;;9.98;3.42;;;0.20;86.50;;;;;;5038620;28;20032;-69
2022/11/23 06:53:12;;;;;;;13.10;3.80;;;0.30;86.20;;;;;;5037551;28;20057;-69
2022/11/23 06:55:41;;;;;;;7.53;3.47;;;0.30;86.40;;;;;;5016862;28;20105;-68
2022/11/23 06:58:08;;;;;;;8.93;3.30;;;0.50;87.10;;;;;;5041467;28;20014;-69
2022/11/23 07:00:34;;;;;;;11.20;3.15;;;0.70;89.30;;;;;;5018723;28;20061;-69
2022/11/23 07:02:59;;;;;;;12.15;2.40;;;0.70;90.50;;;;;;5025148;28;20030;-69
2022/11/23 07:05:26;;;;;;;10.07;3.50;;;0.70;91.60;;;;;;5031905;28;20033;-69
2022/11/23 07:07:52;;;;;;;10.70;4.13;;;0.80;92.60;;;;;;5035595;28;20033;-68
2022/11/23 07:10:18;;;;;;;9.85;4.00;;;0.90;93.70;;;;;;5040874;28;20029;-69
2022/11/23 07:12:45;;;;;;;9.43;3.63;;;0.90;94.80;;;;;;5039392;28;20083;-68
2022/11/23 07:15:11;;;;;;;12.50;4.53;;;0.90;95.40;;;;;;5036910;28;20025;-68
2022/11/23 07:17:40;;;;;;;12.07;4.82;;;0.90;95.60;;;;;;5033982;28;20021;-68
2022/11/23 07:20:08;;;;;;;10.70;4.57;;;0.90;96.30;;;;;;5037457;28;20045;-69
2022/11/23 07:22:34;;;;;;;8.65;4.30;;;0.80;96.10;;;;;;5021417;28;20049;-68
2022/11/23 07:24:59;;;;;;;7.97;3.80;;;0.80;96.00;;;;;;5039881;28;20021;-68
2022/11/23 07:27:25;;;;;;;13.52;6.50;;;0.70;95.40;;;;;;5028195;28;20026;-69
2022/11/23 07:29:50;;;;;;;15.63;6.90;;;0.70;95.10;;;;;;5017545;28;20079;-68
2022/11/23 07:32:16;;;;;;;8.95;4.18;;;0.60;94.90;;;;;;5032070;28;20033;-68
2022/11/23 07:34:41;;;;;;;9.93;3.60;;;0.60;94.40;;;;;;5038848;28;20033;-68
2022/11/23 07:37:07;;;;;;;10.27;4.13;;;0.60;94.10;;;;;;5029471;28;20036;-68
2022/11/23 07:39:33;;;;;;;8.07;3.70;;;0.50;94.00;;;;;;5021414;28;20287;-68
2022/11/23 07:41:58;;;;;;;8.85;3.80;;;0.40;93.90;;;;;;5018163;28;20033;-68
2022/11/23 07:44:24;;;;;;;11.10;4.90;;;0.50;93.50;;;;;;5030876;28;20055;-68
2022/11/23 07:46:52;;;;;;;11.35;4.70;;;0.50;94.20;;;;;;5040967;28;20025;-68
2022/11/23 07:49:18;;;;;;;8.63;4.28;;;0.60;94.70;;;;;;5030397;28;20084;-68
2022/11/23 07:51:43;;;;;;;10.52;3.35;;;0.60;95.00;;;;;;5019384;28;20030;-68
2022/11/23 07:54:09;;;;;;;8.68;3.60;;;0.60;95.00;;;;;;5037628;28;20113;-68
2022/11/23 07:56:34;;;;;;;9.07;3.50;;;0.70;95.50;;;;;;5037538;28;20044;-68
2022/11/23 07:59:00;;;;;;;7.85;3.10;;;0.80;96.00;;;;;;5035337;28;20029;-68
2022/11/23 08:01:26;;;;;;;7.07;3.25;;;1.00;97.30;;;;;;5019822;28;20485;-68
2022/11/23 08:03:51;;;;;;;6.90;3.30;;;1.10;98.00;;;;;;5037194;28;20342;-68
2022/11/23 08:06:17;;;;;;;8.50;3.38;;;1.40;98.00;;;;;;5036327;28;20026;-68
2022/11/23 08:08:43;;;;;;;6.28;2.80;;;1.50;98.00;;;;;;5032700;28;20033;-68
2022/11/23 08:11:13;;;;;;;8.25;4.00;;;1.80;98.00;;;;;;5037057;28;20029;-68
2022/11/23 08:13:39;;;;;;;6.78;2.80;;;2.10;98.00;;;;;;5035318;28;20430;-68
2022/11/23 08:16:04;;;;;;;8.18;3.97;;;2.30;98.00;;;;;;5035839;28;20021;-68
2022/11/23 08:18:30;;;;;;;7.40;3.25;;;2.40;98.00;;;;;;5037167;28;20070;-68
2022/11/23 08:21:01;;;;;;;6.70;2.40;;;3.10;98.00;;;;;;5036946;28;20021;-68
2022/11/23 08:23:27;;;;;;;7.18;2.75;;;4.30;98.00;;;;;;5035375;28;20037;-68
2022/11/23 08:25:53;;;;;;;5.10;2.40;;;5.50;97.40;;;;;;5037177;28;20033;-68
2022/11/23 08:28:19;;;;;;;6.88;2.63;;;6.30;94.60;;;;;;5036980;28;20049;-68
2022/11/23 08:30:45;;;;;;;6.20;2.50;;;7.20;91.90;;;;;;5018395;28;20110;-68
2022/11/23 08:33:11;;;;;;;5.50;2.20;;;7.70;89.30;;;;;;5020965;28;20045;-68
2022/11/23 08:35:38;;;;;;;5.13;2.33;;;8.40;86.50;;;;;;5017161;28;20029;-68
2022/11/23 08:38:04;;;;;;;7.47;2.38;;;8.30;85.60;;;;;;5017167;28;20025;-68
2022/11/23 08:40:30;;;;;;;5.22;2.03;;;8.30;84.80;;;;;;5016976;28;20032;-68
2022/11/23 08:42:56;;;;;;;5.13;2.15;;;8.50;84.60;;;;;;5022943;28;20101;-68
2022/11/23 08:45:21;;;;;;;4.32;2.20;;;8.60;84.30;;;;;;5015928;28;20338;-69
2022/11/23 08:47:47;;;;;;;4.63;2.35;;;9.10;84.10;;;;;;5016977;28;20054;-69
2022/11/23 08:50:13;;;;;;;5.10;2.45;;;9.30;82.50;;;;;;5022835;28;20449;-70
2022/11/23 08:52:38;;;;;;;5.05;2.67;;;9.50;81.90;;;;;;5036422;28;20369;-69
2022/11/23 08:55:04;;;;;;;5.32;2.30;;;9.40;82.20;;;;;;5036634;28;20048;-69
2022/11/23 08:57:30;;;;;;;4.57;2.20;;;9.70;82.30;;;;;;5036572;28;20050;-69
2022/11/23 08:59:56;;;;;;;7.63;2.50;;;9.90;80.40;;;;;;5031291;28;20457;-70
2022/11/23 09:02:21;;;;;;;4.05;1.80;;;10.10;81.00;;;;;;5016735;28;20025;-69
2022/11/23 09:04:47;;;;;;;5.65;2.20;;;10.70;78.70;;;;;;5016586;28;20026;-70
2022/11/23 09:07:13;;;;;;;4.85;2.03;;;10.80;77.70;;;;;;5016787;28;20092;-69
2022/11/23 09:09:38;;;;;;;5.18;2.05;;;10.40;77.60;;;;;;5016425;28;20048;-69
2022/11/23 09:12:05;;;;;;;4.60;2.15;;;10.20;79.40;;;;;;5016354;28;20029;-69
2022/11/23 09:14:30;;;;;;;4.32;1.95;;;10.20;79.20;;;;;;5015375;28;20065;-69
2022/11/23 09:16:56;;;;;;;4.60;1.98;;;10.10;79.20;;;;;;5016431;28;20371;-69
2022/11/23 09:19:22;;;;;;;5.18;1.90;;;10.10;80.70;;;;;;5016254;28;20045;-69
2022/11/23 09:21:47;;;;;;;5.60;2.15;;;10.30;80.10;;;;;;5033841;28;20459;-69
2022/11/23 09:24:15;;;;;;;3.67;1.40;;;10.50;80.60;;;;;;5035380;28;20042;-69
2022/11/23 09:26:41;;;;;;;4.25;1.60;;;10.50;79.40;;;;;;5036120;28;20314;-70
2022/11/23 09:29:07;;;;;;;4.68;1.60;;;11.00;79.00;;;;;;5034884;28;20032;-69
2022/11/23 09:31:34;;;;;;;4.30;1.90;;;11.00;77.40;;;;;;5034153;28;20044;-70
2022/11/23 09:33:59;;;;;;;4.93;2.20;;;11.00;77.60;;;;;;5035716;28;20022;-70
2022/11/23 09:36:25;;;;;;;3.92;1.80;;;10.90;78.40;;;;;;5036050;28;20032;-69
2022/11/23 09:38:51;;;;;;;3.97;1.55;;;11.30;77.00;;;;;;5036120;28;20022;-70
2022/11/23 09:41:19;;;;;;;4.93;1.85;;;11.40;75.80;;;;;;5033822;28;20029;-70
2022/11/23 09:44:06;;;;;;;5.10;1.60;;;11.70;75.60;;;;;;5051076;28;20338;-70
2022/11/23 09:46:32;;;;;;;4.93;1.50;;;12.20;75.00;;;;;;5035854;28;20079;-70
2022/11/23 09:49:07;;;;;;;3.67;1.52;;;12.70;74.10;;;;;;5035817;28;20061;-70
2022/11/23 09:51:36;;;;;;;4.00;1.70;;;12.90;72.50;;;;;;5020901;28;20034;-70
2022/11/23 09:54:08;;;;;;;3.20;1.42;;;13.10;71.90;;;;;;5016007;28;20030;-70
2022/11/23 09:56:35;;;;;;;2.72;1.30;;;12.90;72.30;;;;;;5016068;28;20326;-70
2022/11/23 09:59:09;;;;;;;4.20;1.50;;;12.80;73.20;;;;;;5014806;28;20025;-70
2022/11/23 10:01:35;;;;;;;3.25;1.23;;;12.90;71.60;;;;;;5015759;28;20419;-70
2022/11/23 10:04:03;;;;;;;5.40;1.60;;;12.60;73.10;;;;;;5015866;28;20084;-70
2022/11/23 10:06:33;;;;;;;4.57;1.65;;;12.30;73.30;;;;;;5022514;28;20095;-70
2022/11/23 10:09:17;;;;;;;3.75;1.80;;;12.50;74.60;;;;;;5035639;28;20128;-70
2022/11/23 10:11:53;;;;;;;5.32;2.08;;;13.00;72.00;;;;;;5035627;28;20095;-70
2022/11/23 10:14:19;;;;;;;3.85;1.65;;;12.40;74.00;;;;;;5033164;28;20056;-70
2022/11/23 10:17:16;;;;;;;3.22;1.55;;;12.10;74.40;;;;;;5034594;28;20422;-69
2022/11/23 10:20:11;;;;;;;3.97;1.67;;;11.80;75.60;;;;;;5034533;28;20128;-70
2022/11/23 10:22:55;;;;;;;4.13;2.00;;;11.70;75.70;;;;;;5034608;28;20052;-70
2022/11/23 10:25:23;;;;;;;4.05;2.03;;;11.70;75.00;;;;;;5050405;28;20118;-70
2022/11/23 10:27:53;;;;;;;5.30;2.30;;;11.20;76.30;;;;;;5018155;28;20028;-70
2022/11/23 10:30:19;;;;;;;4.70;1.83;;;10.70;77.50;;;;;;5014387;28;20557;-70
2022/11/23 10:33:10;;;;;;;3.78;1.85;;;10.50;79.10;;;;;;5015593;28;20021;-70
2022/11/23 10:35:37;;;;;;;5.78;1.98;;;10.80;79.00;;;;;;5030521;28;20032;-70
2022/11/23 10:38:12;;;;;;;4.43;1.90;;;10.80;78.10;;;;;;5037306;28;20026;-70
2022/11/23 10:41:01;;;;;;;4.28;1.80;;;11.00;78.70;;;;;;5023610;28;20026;-70
2022/11/23 10:43:36;;;;;;;4.13;2.00;;;10.80;77.50;;;;;;5001943;28;20034;-70
2022/11/23 10:46:32;;;;;;;4.38;1.90;;;10.50;78.50;;;;;;5017991;28;20032;-69
2022/11/23 10:49:12;;;;;;;5.03;1.60;;;10.40;80.20;;;;;;5027985;28;20034;-69
2022/11/23 10:51:38;;;;;;;4.05;1.67;;;11.00;77.70;;;;;;5019104;28;20018;-69
2022/11/23 10:54:15;;;;;;;6.80;2.17;;;11.10;77.60;;;;;;5019066;28;20438;-70
2022/11/23 10:56:46;;;;;;;4.25;1.45;;;11.10;77.60;;;;;;5001868;28;20482;-69
2022/11/23 10:59:30;;;;;;;5.28;2.03;;;11.20;78.20;;;;;;5037534;28;20018;-70
2022/11/23 11:02:15;;;;;;;4.80;1.80;;;11.40;78.40;;;;;;5035286;28;20022;-70
2022/11/23 11:04:41;;;;;;;7.05;2.40;;;11.10;79.00;;;;;;5018762;28;20054;-69
2022/11/23 11:07:22;;;;;;;5.25;2.15;;;11.30;79.00;;;;;;5018753;28;20049;-70
2022/11/23 11:09:50;;;;;;;4.88;2.10;;;11.30;79.50;;;;;;5018726;28;20033;-70
2022/11/23 11:12:17;;;;;;;5.15;2.40;;;11.20;78.50;;;;;;5018706;28;20033;-69
2022/11/23 11:15:23;;;;;;;5.60;2.28;;;11.00;79.90;;;;;;5017520;28;20049;-70
2022/11/23 11:17:57;;;;;;;6.07;2.40;;;10.70;81.90;;;;;;5028643;28;20303;-69
2022/11/23 11:20:30;;;;;;;5.60;2.22;;;11.20;80.40;;;;;;5038027;28;20098;-69
2022/11/23 11:23:17;;;;;;;4.60;1.90;;;11.10;80.00;;;;;;5038151;28;20049;-69
2022/11/23 11:25:43;;;;;;;3.88;1.48;;;11.20;79.60;;;;;;5038073;28;20048;-70
2022/11/23 11:28:28;;;;;;;4.40;1.52;;;11.60;77.90;;;;;;5037340;28;20075;-69
2022/11/23 11:31:05;;;;;;;5.68;1.85;;;11.40;77.50;;;;;;5036867;28;20072;-69
2022/11/23 11:33:42;;;;;;;5.90;2.08;;;11.60;78.50;;;;;;5038220;28;20053;-69
2022/11/23 11:36:10;;;;;;;5.47;1.90;;;11.60;78.40;;;;;;5038202;28;20358;-69
2022/11/23 11:38:37;;;;;;;6.95;2.17;;;11.50;77.40;;;;;;5021793;28;20022;-71
2022/11/23 11:41:12;;;;;;;5.53;1.70;;;11.30;79.60;;;;;;5018068;28;20022;-71
2022/11/23 11:43:47;;;;;;;4.88;1.77;;;11.30;78.90;;;;;;5018117;28;20026;-70
2022/11/23 11:46:22;;;;;;;4.45;1.55;;;11.40;79.30;;;;;;5017038;28;20156;-70
2022/11/23 11:48:54;;;;;;;6.63;2.20;;;11.40;79.90;;;;;;5017777;28;20030;-70
2022/11/23 11:51:28;;;;;;;4.43;1.58;;;11.40;78.60;;;;;;5000509;28;20437;-70
2022/11/23 11:54:19;;;;;;;4.80;1.52;;;11.50;78.50;;;;;;5017767;28;20045;-70
2022/11/23 11:56:48;;;;;;;5.57;1.67;;;11.30;78.50;;;;;;5017660;28;20022;-70
2022/11/23 11:59:44;;;;;;;6.53;1.67;;;11.20;80.50;;;;;;5016878;28;20457;-70
2022/11/23 12:02:34;;;;;;;5.72;1.75;;;11.10;79.10;;;;;;5017276;28;20034;-70
2022/11/23 12:05:02;;;;;;;5.10;1.50;;;10.80;80.70;;;;;;5017705;28;20388;-69
2022/11/23 12:07:52;;;;;;;4.97;1.55;;;10.80;81.80;;;;;;5017552;28;20306;-70
2022/11/23 12:10:24;;;;;;;6.85;1.77;;;11.00;81.00;;;;;;5026777;28;20052;-69
2022/11/23 12:12:51;;;;;;;6.00;1.60;;;11.10;81.20;;;;;;5037458;28;20440;-70
2022/11/23 12:15:23;;;;;;;5.80;1.88;;;11.20;80.10;;;;;;5036124;28;20323;-69
2022/11/23 12:18:35;;;;;;;6.40;1.90;;;11.00;81.40;;;;;;5019853;28;20053;-70
2022/11/23 12:21:14;;;;;;;7.35;2.17;;;11.10;81.50;;;;;;4994720;28;20059;-70
2022/11/23 12:23:43;;;;;;;8.18;2.05;;;10.80;81.40;;;;;;5032518;28;20057;-70
2022/11/23 12:26:31;;;;;;;8.02;2.22;;;10.50;82.40;;;;;;5037190;28;20071;-70
2022/11/23 12:29:13;;;;;;;55.15;33.30;;;10.60;83.40;;;;;;5035822;28;20029;-71
2022/11/23 12:31:46;;;;;;;15.65;9.10;;;10.50;83.50;;;;;;5017923;28;20029;-70
2022/11/23 12:34:36;;;;;;;82.20;52.13;;;10.30;83.60;;;;;;5016950;28;20030;-70
2022/11/23 12:37:28;;;;;;;28.42;24.38;;;10.30;84.80;;;;;;5017151;28;20431;-69
2022/11/23 12:40:23;;;;;;;7.32;2.83;;;10.50;84.60;;;;;;5012684;28;20033;-70
2022/11/23 12:42:55;;;;;;;5.82;2.03;;;10.50;84.60;;;;;;5019376;28;20116;-70
2022/11/23 12:45:29;;;;;;;6.10;2.10;;;10.60;83.40;;;;;;5035663;28;20064;-70
2022/11/23 12:48:17;;;;;;;10.85;5.05;;;10.20;82.20;;;;;;5036799;28;20121;-69
2022/11/23 12:50:55;;;;;;;9.65;2.92;;;10.00;84.60;;;;;;5035620;28;20414;-70
2022/11/23 12:53:39;;;;;;;4.78;1.83;;;10.00;84.40;;;;;;5036549;28;20037;-69
2022/11/23 12:56:20;;;;;;;;;;;10.00;84.00;;;;;;5037122;28;20087;-69
2022/11/23 12:58:48;;;;;;;6.93;1.95;;;10.00;84.50;;;;;;5034908;28;19909;-69
2022/11/23 13:01:19;;;;;;;6.15;1.90;;;10.00;84.90;;;;;;5014871;28;20025;-70
2022/11/23 13:04:23;;;;;;;6.53;1.92;;;10.10;84.40;;;;;;5016629;28;20421;-70
2022/11/23 13:07:35;;;;;;;8.00;2.20;;;10.20;83.60;;;;;;5016430;28;20088;-70